sensor_id;sensor_type;location;lat;lon;timestamp;P1;durP1;ratioP1;P2;durP2;ratioP2
22644;SDS011;11489;50.834;6.752;2023-09-19T00:00:23;2.95;;;1.42;;
22644;SDS011;11489;50.834;6.752;2023-09-19T00:02:54;4.07;;;1.50;;
22644;SDS011;11489;50.834;6.752;2023-09-19T00:05:24;3.78;;;1.42;;
22644;SDS011;11489;50.834;6.752;2023-09-19T00:07:52;3.50;;;1.45;;
22644;SDS011;11489;50.834;6.752;2023-09-19T00:10:19;3.60;;;1.30;;
22644;SDS011;11489;50.834;6.752;2023-09-19T00:12:50;3.92;;;1.60;;
22644;SDS011;11489;50.834;6.752;2023-09-19T00:15:18;3.70;;;1.27;;
22644;SDS011;11489;50.834;6.752;2023-09-19T00:17:44;6.75;;;1.70;;
22644;SDS011;11489;50.834;6.752;2023-09-19T00:20:10;3.97;;;1.45;;
22644;SDS011;11489;50.834;6.752;2023-09-19T00:22:41;3.80;;;1.58;;
22644;SDS011;11489;50.834;6.752;2023-09-19T00:25:08;2.58;;;1.30;;
22644;SDS011;11489;50.834;6.752;2023-09-19T00:27:37;5.68;;;1.73;;
22644;SDS011;11489;50.834;6.752;2023-09-19T00:30:10;4.38;;;1.58;;
22644;SDS011;11489;50.834;6.752;2023-09-19T00:32:50;4.07;;;1.83;;
22644;SDS011;11489;50.834;6.752;2023-09-19T00:35:20;4.43;;;1.42;;
22644;SDS011;11489;50.834;6.752;2023-09-19T00:37:48;3.10;;;1.50;;
22644;SDS011;11489;50.834;6.752;2023-09-19T00:40:14;3.97;;;1.58;;
22644;SDS011;11489;50.834;6.752;2023-09-19T00:42:41;3.30;;;1.38;;
22644;SDS011;11489;50.834;6.752;2023-09-19T00:45:08;3.72;;;1.48;;
22644;SDS011;11489;50.834;6.752;2023-09-19T00:47:37;5.43;;;1.50;;
22644;SDS011;11489;50.834;6.752;2023-09-19T00:50:04;5.72;;;1.80;;
22644;SDS011;11489;50.834;6.752;2023-09-19T00:52:33;3.17;;;1.50;;
22644;SDS011;11489;50.834;6.752;2023-09-19T00:55:02;5.38;;;1.60;;
22644;SDS011;11489;50.834;6.752;2023-09-19T00:57:28;4.10;;;1.67;;
22644;SDS011;11489;50.834;6.752;2023-09-19T00:59:54;5.22;;;1.50;;
22644;SDS011;11489;50.834;6.752;2023-09-19T01:02:21;5.15;;;1.40;;
22644;SDS011;11489;50.834;6.752;2023-09-19T01:04:47;5.22;;;1.50;;
22644;SDS011;11489;50.834;6.752;2023-09-19T01:07:12;5.53;;;1.60;;
22644;SDS011;11489;50.834;6.752;2023-09-19T01:09:40;7.10;;;1.50;;
22644;SDS011;11489;50.834;6.752;2023-09-19T01:12:07;5.20;;;1.58;;
22644;SDS011;11489;50.834;6.752;2023-09-19T01:14:55;6.07;;;1.77;;
22644;SDS011;11489;50.834;6.752;2023-09-19T01:17:42;6.28;;;1.40;;
22644;SDS011;11489;50.834;6.752;2023-09-19T01:20:19;3.95;;;1.60;;
22644;SDS011;11489;50.834;6.752;2023-09-19T01:22:55;5.68;;;1.65;;
22644;SDS011;11489;50.834;6.752;2023-09-19T01:25:33;4.00;;;1.30;;
22644;SDS011;11489;50.834;6.752;2023-09-19T01:30:58;9.27;;;1.60;;
22644;SDS011;11489;50.834;6.752;2023-09-19T01:33:25;5.55;;;1.80;;
22644;SDS011;11489;50.834;6.752;2023-09-19T01:35:51;4.28;;;1.30;;
22644;SDS011;11489;50.834;6.752;2023-09-19T01:38:18;8.70;;;1.98;;
22644;SDS011;11489;50.834;6.752;2023-09-19T01:40:47;6.93;;;1.90;;
22644;SDS011;11489;50.834;6.752;2023-09-19T01:43:27;7.22;;;1.40;;
22644;SDS011;11489;50.834;6.752;2023-09-19T01:46:16;4.43;;;1.67;;
22644;SDS011;11489;50.834;6.752;2023-09-19T01:54:24;4.50;;;1.38;;
22644;SDS011;11489;50.834;6.752;2023-09-19T01:57:03;8.18;;;1.83;;
22644;SDS011;11489;50.834;6.752;2023-09-19T01:59:47;5.43;;;1.83;;
22644;SDS011;11489;50.834;6.752;2023-09-19T02:02:20;6.10;;;1.67;;
22644;SDS011;11489;50.834;6.752;2023-09-19T02:04:48;6.85;;;1.77;;
22644;SDS011;11489;50.834;6.752;2023-09-19T02:07:14;7.40;;;1.65;;
22644;SDS011;11489;50.834;6.752;2023-09-19T02:09:40;7.90;;;1.50;;
22644;SDS011;11489;50.834;6.752;2023-09-19T02:12:08;3.95;;;1.40;;
22644;SDS011;11489;50.834;6.752;2023-09-19T02:14:34;7.55;;;2.00;;
22644;SDS011;11489;50.834;6.752;2023-09-19T02:17:03;8.07;;;2.05;;
22644;SDS011;11489;50.834;6.752;2023-09-19T02:19:34;7.65;;;1.60;;
22644;SDS011;11489;50.834;6.752;2023-09-19T02:22:00;5.82;;;1.58;;
22644;SDS011;11489;50.834;6.752;2023-09-19T02:24:33;7.28;;;1.77;;
22644;SDS011;11489;50.834;6.752;2023-09-19T02:26:59;5.45;;;1.58;;
22644;SDS011;11489;50.834;6.752;2023-09-19T02:29:28;9.02;;;1.55;;
22644;SDS011;11489;50.834;6.752;2023-09-19T02:31:55;3.85;;;1.77;;
22644;SDS011;11489;50.834;6.752;2023-09-19T02:34:21;4.15;;;1.55;;
22644;SDS011;11489;50.834;6.752;2023-09-19T02:36:47;5.82;;;1.90;;
22644;SDS011;11489;50.834;6.752;2023-09-19T02:39:13;4.63;;;1.50;;
22644;SDS011;11489;50.834;6.752;2023-09-19T02:41:39;4.88;;;1.58;;
22644;SDS011;11489;50.834;6.752;2023-09-19T02:44:06;4.85;;;1.48;;
22644;SDS011;11489;50.834;6.752;2023-09-19T02:46:36;6.15;;;1.63;;
22644;SDS011;11489;50.834;6.752;2023-09-19T02:49:02;5.93;;;1.83;;
22644;SDS011;11489;50.834;6.752;2023-09-19T02:51:31;5.82;;;1.63;;
22644;SDS011;11489;50.834;6.752;2023-09-19T02:53:59;6.30;;;1.60;;
22644;SDS011;11489;50.834;6.752;2023-09-19T02:56:25;5.88;;;2.00;;
22644;SDS011;11489;50.834;6.752;2023-09-19T02:58:51;8.52;;;1.88;;
22644;SDS011;11489;50.834;6.752;2023-09-19T03:01:16;7.20;;;1.60;;
22644;SDS011;11489;50.834;6.752;2023-09-19T03:03:43;6.00;;;1.60;;
22644;SDS011;11489;50.834;6.752;2023-09-19T03:06:10;6.60;;;1.92;;
22644;SDS011;11489;50.834;6.752;2023-09-19T03:08:38;9.63;;;1.85;;
22644;SDS011;11489;50.834;6.752;2023-09-19T03:11:07;7.22;;;2.00;;
22644;SDS011;11489;50.834;6.752;2023-09-19T03:13:36;6.57;;;1.77;;
22644;SDS011;11489;50.834;6.752;2023-09-19T03:16:06;6.90;;;1.80;;
22644;SDS011;11489;50.834;6.752;2023-09-19T03:18:32;5.45;;;1.88;;
22644;SDS011;11489;50.834;6.752;2023-09-19T03:21:00;7.70;;;2.10;;
22644;SDS011;11489;50.834;6.752;2023-09-19T03:23:26;6.43;;;1.40;;
22644;SDS011;11489;50.834;6.752;2023-09-19T03:25:53;7.07;;;1.80;;
22644;SDS011;11489;50.834;6.752;2023-09-19T03:28:22;6.63;;;1.70;;
22644;SDS011;11489;50.834;6.752;2023-09-19T03:30:58;6.72;;;2.00;;
22644;SDS011;11489;50.834;6.752;2023-09-19T03:33:25;6.20;;;1.95;;
22644;SDS011;11489;50.834;6.752;2023-09-19T03:35:54;6.97;;;1.95;;
22644;SDS011;11489;50.834;6.752;2023-09-19T03:38:20;5.68;;;1.65;;
22644;SDS011;11489;50.834;6.752;2023-09-19T03:40:47;6.70;;;1.60;;
22644;SDS011;11489;50.834;6.752;2023-09-19T03:43:14;4.68;;;1.60;;
22644;SDS011;11489;50.834;6.752;2023-09-19T03:45:39;7.07;;;2.10;;
22644;SDS011;11489;50.834;6.752;2023-09-19T03:48:09;5.07;;;1.80;;
22644;SDS011;11489;50.834;6.752;2023-09-19T03:50:35;6.32;;;1.90;;
22644;SDS011;11489;50.834;6.752;2023-09-19T03:53:00;7.20;;;1.70;;
22644;SDS011;11489;50.834;6.752;2023-09-19T03:55:27;7.00;;;1.70;;
22644;SDS011;11489;50.834;6.752;2023-09-19T03:57:53;5.28;;;1.90;;
22644;SDS011;11489;50.834;6.752;2023-09-19T04:00:18;5.32;;;1.83;;
22644;SDS011;11489;50.834;6.752;2023-09-19T04:02:51;5.50;;;1.60;;
22644;SDS011;11489;50.834;6.752;2023-09-19T04:05:17;7.35;;;1.70;;
22644;SDS011;11489;50.834;6.752;2023-09-19T04:07:43;8.55;;;1.95;;
22644;SDS011;11489;50.834;6.752;2023-09-19T04:10:09;5.68;;;1.60;;
22644;SDS011;11489;50.834;6.752;2023-09-19T04:12:36;8.18;;;1.70;;
22644;SDS011;11489;50.834;6.752;2023-09-19T04:15:04;6.43;;;1.63;;
22644;SDS011;11489;50.834;6.752;2023-09-19T04:17:30;6.45;;;1.85;;
22644;SDS011;11489;50.834;6.752;2023-09-19T04:19:58;7.57;;;1.75;;
22644;SDS011;11489;50.834;6.752;2023-09-19T04:22:24;9.07;;;1.77;;
22644;SDS011;11489;50.834;6.752;2023-09-19T04:24:49;7.25;;;1.90;;
22644;SDS011;11489;50.834;6.752;2023-09-19T04:27:15;4.45;;;1.67;;
22644;SDS011;11489;50.834;6.752;2023-09-19T04:29:41;5.30;;;1.58;;
22644;SDS011;11489;50.834;6.752;2023-09-19T04:32:07;8.77;;;1.95;;
22644;SDS011;11489;50.834;6.752;2023-09-19T04:34:33;6.55;;;1.77;;
22644;SDS011;11489;50.834;6.752;2023-09-19T04:36:59;8.15;;;2.15;;
22644;SDS011;11489;50.834;6.752;2023-09-19T04:39:26;7.03;;;2.00;;
22644;SDS011;11489;50.834;6.752;2023-09-19T04:41:52;5.35;;;1.90;;
22644;SDS011;11489;50.834;6.752;2023-09-19T04:44:18;9.20;;;2.05;;
22644;SDS011;11489;50.834;6.752;2023-09-19T04:46:44;6.07;;;1.98;;
22644;SDS011;11489;50.834;6.752;2023-09-19T04:49:11;6.50;;;1.70;;
22644;SDS011;11489;50.834;6.752;2023-09-19T04:51:37;5.95;;;1.88;;
22644;SDS011;11489;50.834;6.752;2023-09-19T04:54:03;6.22;;;2.30;;
22644;SDS011;11489;50.834;6.752;2023-09-19T04:56:29;7.07;;;1.60;;
22644;SDS011;11489;50.834;6.752;2023-09-19T04:58:57;6.60;;;1.80;;
22644;SDS011;11489;50.834;6.752;2023-09-19T05:01:26;8.43;;;1.75;;
22644;SDS011;11489;50.834;6.752;2023-09-19T05:03:52;6.22;;;1.65;;
22644;SDS011;11489;50.834;6.752;2023-09-19T05:06:18;8.10;;;1.77;;
22644;SDS011;11489;50.834;6.752;2023-09-19T05:08:48;2.97;;;1.63;;
22644;SDS011;11489;50.834;6.752;2023-09-19T05:11:21;6.75;;;1.60;;
22644;SDS011;11489;50.834;6.752;2023-09-19T05:13:47;6.03;;;1.58;;
22644;SDS011;11489;50.834;6.752;2023-09-19T05:16:15;6.97;;;1.90;;
22644;SDS011;11489;50.834;6.752;2023-09-19T05:18:42;4.93;;;1.60;;
22644;SDS011;11489;50.834;6.752;2023-09-19T05:21:07;4.18;;;1.60;;
22644;SDS011;11489;50.834;6.752;2023-09-19T05:23:33;8.65;;;1.73;;
22644;SDS011;11489;50.834;6.752;2023-09-19T05:25:59;5.32;;;1.60;;
22644;SDS011;11489;50.834;6.752;2023-09-19T05:28:25;7.72;;;2.40;;
22644;SDS011;11489;50.834;6.752;2023-09-19T05:30:52;7.45;;;1.70;;
22644;SDS011;11489;50.834;6.752;2023-09-19T05:33:18;4.70;;;1.70;;
22644;SDS011;11489;50.834;6.752;2023-09-19T05:35:44;7.50;;;2.47;;
22644;SDS011;11489;50.834;6.752;2023-09-19T05:38:12;6.18;;;1.95;;
22644;SDS011;11489;50.834;6.752;2023-09-19T05:40:39;5.97;;;1.73;;
22644;SDS011;11489;50.834;6.752;2023-09-19T05:43:10;8.75;;;1.70;;
22644;SDS011;11489;50.834;6.752;2023-09-19T05:45:35;4.93;;;1.65;;
22644;SDS011;11489;50.834;6.752;2023-09-19T05:48:09;7.60;;;1.92;;
22644;SDS011;11489;50.834;6.752;2023-09-19T05:50:41;4.68;;;1.52;;
22644;SDS011;11489;50.834;6.752;2023-09-19T05:53:07;7.30;;;1.90;;
22644;SDS011;11489;50.834;6.752;2023-09-19T05:55:37;7.63;;;2.30;;
22644;SDS011;11489;50.834;6.752;2023-09-19T05:58:02;7.18;;;1.90;;
22644;SDS011;11489;50.834;6.752;2023-09-19T06:00:29;4.85;;;1.60;;
22644;SDS011;11489;50.834;6.752;2023-09-19T06:02:55;5.63;;;2.08;;
22644;SDS011;11489;50.834;6.752;2023-09-19T06:05:24;4.55;;;1.65;;
22644;SDS011;11489;50.834;6.752;2023-09-19T06:07:56;5.70;;;1.85;;
22644;SDS011;11489;50.834;6.752;2023-09-19T06:10:25;6.00;;;1.60;;
22644;SDS011;11489;50.834;6.752;2023-09-19T06:12:52;8.65;;;2.20;;
22644;SDS011;11489;50.834;6.752;2023-09-19T06:15:20;8.95;;;1.98;;
22644;SDS011;11489;50.834;6.752;2023-09-19T06:17:48;7.30;;;1.92;;
22644;SDS011;11489;50.834;6.752;2023-09-19T06:20:15;8.95;;;1.85;;
22644;SDS011;11489;50.834;6.752;2023-09-19T06:22:42;12.55;;;1.90;;
22644;SDS011;11489;50.834;6.752;2023-09-19T06:25:12;7.40;;;1.75;;
22644;SDS011;11489;50.834;6.752;2023-09-19T06:27:44;7.28;;;2.17;;
22644;SDS011;11489;50.834;6.752;2023-09-19T06:30:11;7.43;;;1.83;;
22644;SDS011;11489;50.834;6.752;2023-09-19T06:32:37;6.93;;;1.95;;
22644;SDS011;11489;50.834;6.752;2023-09-19T06:35:03;5.57;;;1.70;;
22644;SDS011;11489;50.834;6.752;2023-09-19T06:37:32;5.38;;;2.45;;
22644;SDS011;11489;50.834;6.752;2023-09-19T06:39:59;5.95;;;1.88;;
22644;SDS011;11489;50.834;6.752;2023-09-19T06:42:25;5.95;;;2.17;;
22644;SDS011;11489;50.834;6.752;2023-09-19T06:44:53;8.55;;;1.90;;
22644;SDS011;11489;50.834;6.752;2023-09-19T06:47:19;7.50;;;2.10;;
22644;SDS011;11489;50.834;6.752;2023-09-19T06:49:45;6.53;;;1.90;;
22644;SDS011;11489;50.834;6.752;2023-09-19T06:52:11;7.03;;;1.83;;
22644;SDS011;11489;50.834;6.752;2023-09-19T06:54:36;5.30;;;1.63;;
22644;SDS011;11489;50.834;6.752;2023-09-19T06:57:02;8.30;;;1.67;;
22644;SDS011;11489;50.834;6.752;2023-09-19T06:59:28;4.88;;;1.52;;
22644;SDS011;11489;50.834;6.752;2023-09-19T07:01:54;6.40;;;1.88;;
22644;SDS011;11489;50.834;6.752;2023-09-19T07:04:20;6.63;;;1.83;;
22644;SDS011;11489;50.834;6.752;2023-09-19T07:06:49;6.78;;;1.75;;
22644;SDS011;11489;50.834;6.752;2023-09-19T07:09:15;5.40;;;1.80;;
22644;SDS011;11489;50.834;6.752;2023-09-19T07:11:41;7.68;;;1.88;;
22644;SDS011;11489;50.834;6.752;2023-09-19T07:14:07;6.22;;;1.75;;
22644;SDS011;11489;50.834;6.752;2023-09-19T07:16:37;4.38;;;1.45;;
22644;SDS011;11489;50.834;6.752;2023-09-19T07:19:04;7.43;;;1.70;;
22644;SDS011;11489;50.834;6.752;2023-09-19T07:21:30;8.23;;;1.70;;
22644;SDS011;11489;50.834;6.752;2023-09-19T07:23:56;8.50;;;2.10;;
22644;SDS011;11489;50.834;6.752;2023-09-19T07:26:21;6.50;;;1.83;;
22644;SDS011;11489;50.834;6.752;2023-09-19T07:28:47;5.95;;;1.85;;
22644;SDS011;11489;50.834;6.752;2023-09-19T07:31:12;6.82;;;1.98;;
22644;SDS011;11489;50.834;6.752;2023-09-19T07:33:39;7.63;;;1.88;;
22644;SDS011;11489;50.834;6.752;2023-09-19T07:36:05;6.13;;;1.83;;
22644;SDS011;11489;50.834;6.752;2023-09-19T07:38:34;10.20;;;2.35;;
22644;SDS011;11489;50.834;6.752;2023-09-19T07:41:00;7.05;;;1.90;;
22644;SDS011;11489;50.834;6.752;2023-09-19T07:43:27;11.30;;;1.83;;
22644;SDS011;11489;50.834;6.752;2023-09-19T07:45:53;12.32;;;2.58;;
22644;SDS011;11489;50.834;6.752;2023-09-19T07:48:19;6.50;;;1.83;;
22644;SDS011;11489;50.834;6.752;2023-09-19T07:50:44;8.13;;;1.90;;
22644;SDS011;11489;50.834;6.752;2023-09-19T07:53:10;10.82;;;2.22;;
22644;SDS011;11489;50.834;6.752;2023-09-19T07:55:38;6.55;;;1.77;;
22644;SDS011;11489;50.834;6.752;2023-09-19T07:58:06;4.97;;;2.20;;
22644;SDS011;11489;50.834;6.752;2023-09-19T08:00:32;7.63;;;1.85;;
22644;SDS011;11489;50.834;6.752;2023-09-19T08:03:00;7.43;;;1.60;;
22644;SDS011;11489;50.834;6.752;2023-09-19T08:05:26;5.35;;;1.70;;
22644;SDS011;11489;50.834;6.752;2023-09-19T08:07:52;7.25;;;2.13;;
22644;SDS011;11489;50.834;6.752;2023-09-19T08:10:21;3.30;;;1.60;;
22644;SDS011;11489;50.834;6.752;2023-09-19T08:12:47;6.97;;;1.88;;
22644;SDS011;11489;50.834;6.752;2023-09-19T08:15:14;6.70;;;1.60;;
22644;SDS011;11489;50.834;6.752;2023-09-19T08:17:42;7.20;;;1.77;;
22644;SDS011;11489;50.834;6.752;2023-09-19T08:20:08;5.88;;;1.85;;
22644;SDS011;11489;50.834;6.752;2023-09-19T08:22:42;7.28;;;1.52;;
22644;SDS011;11489;50.834;6.752;2023-09-19T08:25:19;6.03;;;1.60;;
22644;SDS011;11489;50.834;6.752;2023-09-19T08:27:46;4.60;;;1.75;;
22644;SDS011;11489;50.834;6.752;2023-09-19T08:30:13;7.20;;;2.05;;
22644;SDS011;11489;50.834;6.752;2023-09-19T08:32:40;7.50;;;1.70;;
22644;SDS011;11489;50.834;6.752;2023-09-19T08:35:08;8.70;;;2.00;;
22644;SDS011;11489;50.834;6.752;2023-09-19T08:37:34;5.55;;;1.80;;
22644;SDS011;11489;50.834;6.752;2023-09-19T08:40:00;7.57;;;2.08;;
22644;SDS011;11489;50.834;6.752;2023-09-19T08:42:26;7.72;;;2.08;;
22644;SDS011;11489;50.834;6.752;2023-09-19T08:44:52;3.08;;;1.27;;
22644;SDS011;11489;50.834;6.752;2023-09-19T08:47:34;5.70;;;1.60;;
22644;SDS011;11489;50.834;6.752;2023-09-19T08:50:21;6.25;;;1.45;;
22644;SDS011;11489;50.834;6.752;2023-09-19T08:52:54;5.00;;;1.90;;
22644;SDS011;11489;50.834;6.752;2023-09-19T08:55:23;4.60;;;1.65;;
22644;SDS011;11489;50.834;6.752;2023-09-19T08:57:53;6.93;;;1.75;;
22644;SDS011;11489;50.834;6.752;2023-09-19T09:00:26;5.18;;;1.50;;
22644;SDS011;11489;50.834;6.752;2023-09-19T09:02:53;4.50;;;1.50;;
22644;SDS011;11489;50.834;6.752;2023-09-19T09:05:20;3.22;;;1.15;;
22644;SDS011;11489;50.834;6.752;2023-09-19T09:07:52;4.15;;;1.58;;
22644;SDS011;11489;50.834;6.752;2023-09-19T09:10:21;5.18;;;1.45;;
22644;SDS011;11489;50.834;6.752;2023-09-19T09:12:53;3.55;;;1.23;;
22644;SDS011;11489;50.834;6.752;2023-09-19T09:15:23;6.40;;;1.50;;
22644;SDS011;11489;50.834;6.752;2023-09-19T09:17:50;3.38;;;1.58;;
22644;SDS011;11489;50.834;6.752;2023-09-19T09:20:18;4.93;;;1.52;;
22644;SDS011;11489;50.834;6.752;2023-09-19T09:22:51;4.82;;;1.55;;
22644;SDS011;11489;50.834;6.752;2023-09-19T09:25:18;6.45;;;1.80;;
22644;SDS011;11489;50.834;6.752;2023-09-19T09:27:45;4.18;;;1.52;;
22644;SDS011;11489;50.834;6.752;2023-09-19T09:30:33;5.53;;;1.70;;
22644;SDS011;11489;50.834;6.752;2023-09-19T09:33:11;3.10;;;1.33;;
22644;SDS011;11489;50.834;6.752;2023-09-19T09:35:52;4.28;;;1.60;;
22644;SDS011;11489;50.834;6.752;2023-09-19T09:38:18;3.95;;;1.65;;
22644;SDS011;11489;50.834;6.752;2023-09-19T09:40:45;5.72;;;1.65;;
22644;SDS011;11489;50.834;6.752;2023-09-19T09:43:26;3.47;;;1.38;;
22644;SDS011;11489;50.834;6.752;2023-09-19T09:46:16;3.65;;;1.40;;
22644;SDS011;11489;50.834;6.752;2023-09-19T09:48:46;2.72;;;1.27;;
22644;SDS011;11489;50.834;6.752;2023-09-19T09:51:33;8.13;;;1.40;;
22644;SDS011;11489;50.834;6.752;2023-09-19T09:54:17;4.10;;;1.20;;
22644;SDS011;11489;50.834;6.752;2023-09-19T09:59:44;3.75;;;1.10;;
22644;SDS011;11489;50.834;6.752;2023-09-19T10:08:11;3.00;;;1.48;;
22644;SDS011;11489;50.834;6.752;2023-09-19T10:10:40;6.65;;;1.52;;
22644;SDS011;11489;50.834;6.752;2023-09-19T10:13:06;2.30;;;1.27;;
22644;SDS011;11489;50.834;6.752;2023-09-19T10:15:43;4.85;;;1.50;;
22644;SDS011;11489;50.834;6.752;2023-09-19T10:18:16;3.53;;;1.63;;
22644;SDS011;11489;50.834;6.752;2023-09-19T10:20:53;4.32;;;1.52;;
22644;SDS011;11489;50.834;6.752;2023-09-19T10:23:20;3.22;;;1.30;;
22644;SDS011;11489;50.834;6.752;2023-09-19T10:25:51;2.30;;;1.30;;
22644;SDS011;11489;50.834;6.752;2023-09-19T10:28:18;2.55;;;1.25;;
22644;SDS011;11489;50.834;6.752;2023-09-19T10:30:48;3.35;;;1.40;;
22644;SDS011;11489;50.834;6.752;2023-09-19T10:33:17;5.88;;;1.58;;
22644;SDS011;11489;50.834;6.752;2023-09-19T10:35:47;2.85;;;1.38;;
22644;SDS011;11489;50.834;6.752;2023-09-19T10:38:14;3.50;;;1.33;;
22644;SDS011;11489;50.834;6.752;2023-09-19T10:40:50;1.83;;;1.02;;
22644;SDS011;11489;50.834;6.752;2023-09-19T10:43:19;4.45;;;1.50;;
22644;SDS011;11489;50.834;6.752;2023-09-19T10:45:46;3.53;;;1.45;;
22644;SDS011;11489;50.834;6.752;2023-09-19T10:48:17;2.42;;;1.30;;
22644;SDS011;11489;50.834;6.752;2023-09-19T10:53:25;3.75;;;1.15;;
22644;SDS011;11489;50.834;6.752;2023-09-19T10:55:55;3.50;;;1.30;;
22644;SDS011;11489;50.834;6.752;2023-09-19T10:58:28;4.55;;;1.30;;
22644;SDS011;11489;50.834;6.752;2023-09-19T11:00:59;3.03;;;1.40;;
22644;SDS011;11489;50.834;6.752;2023-09-19T11:03:37;5.88;;;1.58;;
22644;SDS011;11489;50.834;6.752;2023-09-19T11:08:51;2.00;;;1.20;;
22644;SDS011;11489;50.834;6.752;2023-09-19T11:11:50;3.83;;;1.60;;
22644;SDS011;11489;50.834;6.752;2023-09-19T11:14:29;2.83;;;1.35;;
22644;SDS011;11489;50.834;6.752;2023-09-19T11:30:50;7.30;;;1.60;;
22644;SDS011;11489;50.834;6.752;2023-09-19T11:33:32;3.50;;;1.35;;
22644;SDS011;11489;50.834;6.752;2023-09-19T11:43:51;5.15;;;1.40;;
22644;SDS011;11489;50.834;6.752;2023-09-19T11:46:20;2.08;;;1.05;;
22644;SDS011;11489;50.834;6.752;2023-09-19T11:48:49;1.95;;;1.15;;
22644;SDS011;11489;50.834;6.752;2023-09-19T11:51:22;2.30;;;1.40;;
22644;SDS011;11489;50.834;6.752;2023-09-19T11:53:57;2.88;;;1.50;;
22644;SDS011;11489;50.834;6.752;2023-09-19T11:56:26;2.60;;;1.27;;
22644;SDS011;11489;50.834;6.752;2023-09-19T11:58:57;2.75;;;1.15;;
22644;SDS011;11489;50.834;6.752;2023-09-19T12:01:25;4.60;;;1.20;;
22644;SDS011;11489;50.834;6.752;2023-09-19T12:03:55;3.45;;;1.40;;
22644;SDS011;11489;50.834;6.752;2023-09-19T12:06:23;3.22;;;1.35;;
22644;SDS011;11489;50.834;6.752;2023-09-19T12:08:50;2.90;;;1.30;;
22644;SDS011;11489;50.834;6.752;2023-09-19T12:11:19;2.85;;;1.13;;
22644;SDS011;11489;50.834;6.752;2023-09-19T12:13:47;3.92;;;1.35;;
22644;SDS011;11489;50.834;6.752;2023-09-19T12:16:14;3.67;;;1.30;;
22644;SDS011;11489;50.834;6.752;2023-09-19T12:18:47;5.05;;;1.60;;
22644;SDS011;11489;50.834;6.752;2023-09-19T12:21:25;5.68;;;1.42;;
22644;SDS011;11489;50.834;6.752;2023-09-19T12:23:59;2.97;;;1.50;;
22644;SDS011;11489;50.834;6.752;2023-09-19T12:26:30;3.95;;;1.30;;
22644;SDS011;11489;50.834;6.752;2023-09-19T12:29:03;2.97;;;1.20;;
22644;SDS011;11489;50.834;6.752;2023-09-19T12:31:30;2.70;;;1.25;;
22644;SDS011;11489;50.834;6.752;2023-09-19T12:34:01;3.22;;;1.50;;
22644;SDS011;11489;50.834;6.752;2023-09-19T12:36:27;5.22;;;1.13;;
22644;SDS011;11489;50.834;6.752;2023-09-19T12:38:56;2.85;;;1.17;;
22644;SDS011;11489;50.834;6.752;2023-09-19T12:41:24;5.75;;;1.45;;
22644;SDS011;11489;50.834;6.752;2023-09-19T12:43:51;3.08;;;1.23;;
22644;SDS011;11489;50.834;6.752;2023-09-19T12:46:23;3.13;;;1.20;;
22644;SDS011;11489;50.834;6.752;2023-09-19T12:49:14;2.88;;;1.25;;
22644;SDS011;11489;50.834;6.752;2023-09-19T12:51:42;2.13;;;0.82;;
22644;SDS011;11489;50.834;6.752;2023-09-19T12:54:09;5.10;;;1.30;;
22644;SDS011;11489;50.834;6.752;2023-09-19T12:56:40;3.28;;;0.88;;
22644;SDS011;11489;50.834;6.752;2023-09-19T12:59:11;1.98;;;0.93;;
22644;SDS011;11489;50.834;6.752;2023-09-19T13:01:39;2.95;;;1.20;;
22644;SDS011;11489;50.834;6.752;2023-09-19T13:04:13;2.92;;;0.88;;
22644;SDS011;11489;50.834;6.752;2023-09-19T13:06:44;3.70;;;0.80;;
22644;SDS011;11489;50.834;6.752;2023-09-19T13:09:13;3.50;;;1.20;;
22644;SDS011;11489;50.834;6.752;2023-09-19T13:11:40;3.33;;;0.95;;
22644;SDS011;11489;50.834;6.752;2023-09-19T13:14:19;1.70;;;0.88;;
22644;SDS011;11489;50.834;6.752;2023-09-19T13:19:48;2.95;;;0.90;;
22644;SDS011;11489;50.834;6.752;2023-09-19T13:25:13;1.20;;;0.60;;
22644;SDS011;11489;50.834;6.752;2023-09-19T13:27:43;3.10;;;1.00;;
22644;SDS011;11489;50.834;6.752;2023-09-19T13:30:10;2.10;;;0.93;;
22644;SDS011;11489;50.834;6.752;2023-09-19T13:32:36;2.15;;;1.00;;
22644;SDS011;11489;50.834;6.752;2023-09-19T13:35:04;2.45;;;0.88;;
22644;SDS011;11489;50.834;6.752;2023-09-19T13:37:30;3.17;;;1.00;;
22644;SDS011;11489;50.834;6.752;2023-09-19T13:39:59;2.03;;;1.10;;
22644;SDS011;11489;50.834;6.752;2023-09-19T13:42:24;3.22;;;0.90;;
22644;SDS011;11489;50.834;6.752;2023-09-19T13:44:53;3.22;;;1.02;;
22644;SDS011;11489;50.834;6.752;2023-09-19T13:47:19;3.95;;;0.82;;
22644;SDS011;11489;50.834;6.752;2023-09-19T13:49:49;1.67;;;0.70;;
22644;SDS011;11489;50.834;6.752;2023-09-19T13:52:18;3.70;;;1.30;;
22644;SDS011;11489;50.834;6.752;2023-09-19T13:54:45;1.83;;;0.80;;
22644;SDS011;11489;50.834;6.752;2023-09-19T13:57:10;3.17;;;1.00;;
22644;SDS011;11489;50.834;6.752;2023-09-19T13:59:36;3.33;;;0.93;;
22644;SDS011;11489;50.834;6.752;2023-09-19T14:02:02;1.58;;;0.73;;
22644;SDS011;11489;50.834;6.752;2023-09-19T14:04:28;2.40;;;0.90;;
22644;SDS011;11489;50.834;6.752;2023-09-19T14:06:54;1.80;;;0.80;;
22644;SDS011;11489;50.834;6.752;2023-09-19T14:09:19;1.33;;;0.70;;
22644;SDS011;11489;50.834;6.752;2023-09-19T14:11:46;3.65;;;0.82;;
22644;SDS011;11489;50.834;6.752;2023-09-19T14:14:13;2.72;;;0.70;;
22644;SDS011;11489;50.834;6.752;2023-09-19T14:16:39;4.25;;;1.00;;
22644;SDS011;11489;50.834;6.752;2023-09-19T14:19:07;1.88;;;0.95;;
22644;SDS011;11489;50.834;6.752;2023-09-19T14:21:33;3.30;;;1.05;;
22644;SDS011;11489;50.834;6.752;2023-09-19T14:23:59;1.80;;;0.73;;
22644;SDS011;11489;50.834;6.752;2023-09-19T14:26:24;6.30;;;1.10;;
22644;SDS011;11489;50.834;6.752;2023-09-19T14:28:50;2.58;;;0.68;;
22644;SDS011;11489;50.834;6.752;2023-09-19T14:31:16;2.53;;;0.70;;
22644;SDS011;11489;50.834;6.752;2023-09-19T14:33:41;2.35;;;0.70;;
22644;SDS011;11489;50.834;6.752;2023-09-19T14:36:09;0.95;;;0.50;;
22644;SDS011;11489;50.834;6.752;2023-09-19T14:38:35;1.75;;;0.52;;
22644;SDS011;11489;50.834;6.752;2023-09-19T14:41:03;2.08;;;0.88;;
22644;SDS011;11489;50.834;6.752;2023-09-19T14:43:31;2.38;;;0.75;;
22644;SDS011;11489;50.834;6.752;2023-09-19T14:45:57;2.60;;;0.70;;
22644;SDS011;11489;50.834;6.752;2023-09-19T14:48:33;3.08;;;0.68;;
22644;SDS011;11489;50.834;6.752;2023-09-19T14:51:03;2.00;;;0.73;;
22644;SDS011;11489;50.834;6.752;2023-09-19T14:53:34;3.00;;;0.60;;
22644;SDS011;11489;50.834;6.752;2023-09-19T14:56:04;4.20;;;0.70;;
22644;SDS011;11489;50.834;6.752;2023-09-19T14:58:30;1.50;;;0.57;;
22644;SDS011;11489;50.834;6.752;2023-09-19T15:01:03;2.63;;;0.80;;
22644;SDS011;11489;50.834;6.752;2023-09-19T15:03:31;2.55;;;0.60;;
22644;SDS011;11489;50.834;6.752;2023-09-19T15:06:04;2.97;;;0.77;;
22644;SDS011;11489;50.834;6.752;2023-09-19T15:08:40;1.90;;;0.73;;
22644;SDS011;11489;50.834;6.752;2023-09-19T15:11:11;2.17;;;0.75;;
22644;SDS011;11489;50.834;6.752;2023-09-19T15:13:37;1.50;;;0.60;;
22644;SDS011;11489;50.834;6.752;2023-09-19T15:16:04;2.38;;;0.90;;
22644;SDS011;11489;50.834;6.752;2023-09-19T15:18:34;1.50;;;0.80;;
22644;SDS011;11489;50.834;6.752;2023-09-19T15:21:09;1.30;;;0.60;;
22644;SDS011;11489;50.834;6.752;2023-09-19T15:23:36;1.42;;;0.68;;
22644;SDS011;11489;50.834;6.752;2023-09-19T15:26:04;1.30;;;0.65;;
22644;SDS011;11489;50.834;6.752;2023-09-19T15:28:30;1.40;;;0.60;;
22644;SDS011;11489;50.834;6.752;2023-09-19T15:31:01;3.25;;;0.70;;
22644;SDS011;11489;50.834;6.752;2023-09-19T15:33:27;2.58;;;0.65;;
22644;SDS011;11489;50.834;6.752;2023-09-19T15:36:09;2.53;;;0.90;;
22644;SDS011;11489;50.834;6.752;2023-09-19T15:41:22;2.63;;;0.80;;
22644;SDS011;11489;50.834;6.752;2023-09-19T15:43:48;2.60;;;0.80;;
22644;SDS011;11489;50.834;6.752;2023-09-19T15:46:14;3.75;;;0.80;;
22644;SDS011;11489;50.834;6.752;2023-09-19T15:48:40;1.67;;;0.70;;
22644;SDS011;11489;50.834;6.752;2023-09-19T15:51:06;2.33;;;0.77;;